sensor_id;sensor_type;location;lat;lon;timestamp;temperature;humidity
57719;DHT22;43561;50.090;18.522;2022-12-10T00:06:05;0.90;99.90
57719;DHT22;43561;50.090;18.522;2022-12-10T00:16:09;0.90;99.90
57719;DHT22;43561;50.090;18.522;2022-12-10T00:26:16;0.90;99.90
57719;DHT22;43561;50.090;18.522;2022-12-10T00:36:22;0.90;99.90
57719;DHT22;43561;50.090;18.522;2022-12-10T00:46:24;0.90;99.90
57719;DHT22;43561;50.090;18.522;2022-12-10T00:56:28;0.90;99.90
57719;DHT22;43561;50.090;18.522;2022-12-10T01:06:36;0.90;99.90
57719;DHT22;43561;50.090;18.522;2022-12-10T01:16:39;0.90;99.90
57719;DHT22;43561;50.090;18.522;2022-12-10T01:26:40;0.90;99.90
57719;DHT22;43561;50.090;18.522;2022-12-10T01:36:44;0.90;99.90
57719;DHT22;43561;50.090;18.522;2022-12-10T01:46:49;0.90;99.90
57719;DHT22;43561;50.090;18.522;2022-12-10T01:57:00;1.00;99.90
57719;DHT22;43561;50.090;18.522;2022-12-10T02:17:49;0.90;99.90
57719;DHT22;43561;50.090;18.522;2022-12-10T02:28:06;1.00;99.90
57719;DHT22;43561;50.090;18.522;2022-12-10T02:38:26;0.90;99.90
57719;DHT22;43561;50.090;18.522;2022-12-10T02:48:33;1.00;99.90
57719;DHT22;43561;50.090;18.522;2022-12-10T03:19:04;1.00;99.90
57719;DHT22;43561;50.090;18.522;2022-12-10T03:29:10;1.00;99.90
57719;DHT22;43561;50.090;18.522;2022-12-10T03:39:13;1.00;99.90
57719;DHT22;43561;50.090;18.522;2022-12-10T03:49:15;0.90;99.90
57719;DHT22;43561;50.090;18.522;2022-12-10T03:59:17;1.00;99.90
57719;DHT22;43561;50.090;18.522;2022-12-10T04:09:19;1.00;99.90
57719;DHT22;43561;50.090;18.522;2022-12-10T04:19:21;1.00;99.90
57719;DHT22;43561;50.090;18.522;2022-12-10T04:29:26;0.90;99.90
57719;DHT22;43561;50.090;18.522;2022-12-10T04:39:28;1.00;99.90
57719;DHT22;43561;50.090;18.522;2022-12-10T04:49:30;1.00;99.90
57719;DHT22;43561;50.090;18.522;2022-12-10T04:59:32;1.00;99.90
57719;DHT22;43561;50.090;18.522;2022-12-10T05:09:34;1.00;99.90
57719;DHT22;43561;50.090;18.522;2022-12-10T05:19:37;1.10;99.90
57719;DHT22;43561;50.090;18.522;2022-12-10T05:29:39;1.10;99.90
57719;DHT22;43561;50.090;18.522;2022-12-10T05:39:41;1.00;99.90
57719;DHT22;43561;50.090;18.522;2022-12-10T05:49:43;0.90;99.90
57719;DHT22;43561;50.090;18.522;2022-12-10T05:59:52;1.00;99.90
57719;DHT22;43561;50.090;18.522;2022-12-10T06:09:54;0.90;99.90
57719;DHT22;43561;50.090;18.522;2022-12-10T06:19:57;0.90;99.90
57719;DHT22;43561;50.090;18.522;2022-12-10T06:29:59;1.00;99.90
57719;DHT22;43561;50.090;18.522;2022-12-10T06:40:01;1.00;99.90
57719;DHT22;43561;50.090;18.522;2022-12-10T06:50:05;1.00;99.90
57719;DHT22;43561;50.090;18.522;2022-12-10T07:00:08;1.00;99.90
57719;DHT22;43561;50.090;18.522;2022-12-10T07:10:11;1.00;99.90
57719;DHT22;43561;50.090;18.522;2022-12-10T07:20:13;1.00;99.90
57719;DHT22;43561;50.090;18.522;2022-12-10T07:30:15;1.10;99.90
57719;DHT22;43561;50.090;18.522;2022-12-10T07:40:17;1.10;99.90
57719;DHT22;43561;50.090;18.522;2022-12-10T07:50:19;1.10;99.90
57719;DHT22;43561;50.090;18.522;2022-12-10T08:00:20;1.10;99.90
57719;DHT22;43561;50.090;18.522;2022-12-10T08:10:22;1.00;99.90
57719;DHT22;43561;50.090;18.522;2022-12-10T08:20:24;1.10;99.90
57719;DHT22;43561;50.090;18.522;2022-12-10T08:30:26;1.00;99.90
57719;DHT22;43561;50.090;18.522;2022-12-10T08:40:28;1.00;99.90
57719;DHT22;43561;50.090;18.522;2022-12-10T08:50:30;1.10;99.90
57719;DHT22;43561;50.090;18.522;2022-12-10T09:00:32;1.20;99.90
57719;DHT22;43561;50.090;18.522;2022-12-10T09:10:35;1.10;99.90
57719;DHT22;43561;50.090;18.522;2022-12-10T09:20:37;1.10;99.90
57719;DHT22;43561;50.090;18.522;2022-12-10T09:30:39;1.20;99.90
57719;DHT22;43561;50.090;18.522;2022-12-10T09:41:14;1.10;99.90
57719;DHT22;43561;50.090;18.522;2022-12-10T09:51:32;1.00;99.90
57719;DHT22;43561;50.090;18.522;2022-12-10T10:01:34;1.10;99.90
57719;DHT22;43561;50.090;18.522;2022-12-10T10:11:36;1.10;99.90
57719;DHT22;43561;50.090;18.522;2022-12-10T10:21:40;1.10;99.90
57719;DHT22;43561;50.090;18.522;2022-12-10T10:31:43;1.10;99.90
57719;DHT22;43561;50.090;18.522;2022-12-10T10:41:49;1.00;99.90
57719;DHT22;43561;50.090;18.522;2022-12-10T10:52:04;1.10;99.90
57719;DHT22;43561;50.090;18.522;2022-12-10T11:02:36;1.10;99.90
57719;DHT22;43561;50.090;18.522;2022-12-10T11:12:40;1.10;99.90
57719;DHT22;43561;50.090;18.522;2022-12-10T11:22:59;1.10;99.90
57719;DHT22;43561;50.090;18.522;2022-12-10T11:43:37;1.30;99.90
57719;DHT22;43561;50.090;18.522;2022-12-10T12:14:24;1.40;99.90
57719;DHT22;43561;50.090;18.522;2022-12-10T12:24:36;1.20;99.90
57719;DHT22;43561;50.090;18.522;2022-12-10T12:34:46;1.20;99.90
57719;DHT22;43561;50.090;18.522;2022-12-10T13:05:42;1.20;99.90
57719;DHT22;43561;50.090;18.522;2022-12-10T13:15:44;1.30;99.90
57719;DHT22;43561;50.090;18.522;2022-12-10T13:35:55;1.20;99.90
57719;DHT22;43561;50.090;18.522;2022-12-10T14:07:04;1.20;99.90
57719;DHT22;43561;50.090;18.522;2022-12-10T14:17:38;1.30;99.90
57719;DHT22;43561;50.090;18.522;2022-12-10T14:27:41;1.20;99.90
57719;DHT22;43561;50.090;18.522;2022-12-10T14:37:44;1.30;99.90
57719;DHT22;43561;50.090;18.522;2022-12-10T14:47:47;1.10;99.90
57719;DHT22;43561;50.090;18.522;2022-12-10T14:58:00;1.10;99.90
57719;DHT22;43561;50.090;18.522;2022-12-10T15:08:13;1.80;99.90
57719;DHT22;43561;50.090;18.522;2022-12-10T15:18:18;1.00;99.90
57719;DHT22;43561;50.090;18.522;2022-12-10T15:38:28;0.90;99.90
57719;DHT22;43561;50.090;18.522;2022-12-10T15:48:30;0.90;99.90
57719;DHT22;43561;50.090;18.522;2022-12-10T15:58:32;0.90;99.90
57719;DHT22;43561;50.090;18.522;2022-12-10T16:08:34;0.80;99.90
57719;DHT22;43561;50.090;18.522;2022-12-10T16:18:36;0.80;99.90
57719;DHT22;43561;50.090;18.522;2022-12-10T16:28:39;0.70;99.90
57719;DHT22;43561;50.090;18.522;2022-12-10T16:38:41;0.70;99.90
57719;DHT22;43561;50.090;18.522;2022-12-10T16:48:43;0.70;99.90
57719;DHT22;43561;50.090;18.522;2022-12-10T16:58:45;0.70;99.90
57719;DHT22;43561;50.090;18.522;2022-12-10T17:08:48;0.70;99.90
57719;DHT22;43561;50.090;18.522;2022-12-10T17:18:50;0.70;99.90
57719;DHT22;43561;50.090;18.522;2022-12-10T17:28:53;0.60;99.90
57719;DHT22;43561;50.090;18.522;2022-12-10T17:38:55;0.70;99.90
57719;DHT22;43561;50.090;18.522;2022-12-10T17:48:57;0.70;99.90
57719;DHT22;43561;50.090;18.522;2022-12-10T17:58:59;0.60;99.90
57719;DHT22;43561;50.090;18.522;2022-12-10T18:09:02;0.60;99.90
57719;DHT22;43561;50.090;18.522;2022-12-10T18:19:11;0.60;99.90
57719;DHT22;43561;50.090;18.522;2022-12-10T18:29:14;0.60;99.90
57719;DHT22;43561;50.090;18.522;2022-12-10T18:39:22;0.60;99.90
57719;DHT22;43561;50.090;18.522;2022-12-10T18:49:24;0.60;99.90
57719;DHT22;43561;50.090;18.522;2022-12-10T18:59:26;0.60;99.90
57719;DHT22;43561;50.090;18.522;2022-12-10T19:09:29;0.60;99.90
57719;DHT22;43561;50.090;18.522;2022-12-10T19:19:33;0.60;99.90
57719;DHT22;43561;50.090;18.522;2022-12-10T19:29:35;0.60;99.90
57719;DHT22;43561;50.090;18.522;2022-12-10T19:39:37;0.60;99.90
57719;DHT22;43561;50.090;18.522;2022-12-10T19:49:39;0.60;99.90
57719;DHT22;43561;50.090;18.522;2022-12-10T19:59:41;0.50;99.90
57719;DHT22;43561;50.090;18.522;2022-12-10T20:09:43;0.50;99.90
57719;DHT22;43561;50.090;18.522;2022-12-10T20:19:45;0.50;99.90
57719;DHT22;43561;50.090;18.522;2022-12-10T20:29:48;0.50;99.90
57719;DHT22;43561;50.090;18.522;2022-12-10T20:39:49;0.50;99.90
57719;DHT22;43561;50.090;18.522;2022-12-10T20:50:15;0.50;99.90
57719;DHT22;43561;50.090;18.522;2022-12-10T21:00:19;0.50;99.90
57719;DHT22;43561;50.090;18.522;2022-12-10T21:10:22;0.40;99.90
57719;DHT22;43561;50.090;18.522;2022-12-10T21:20:25;0.40;99.90
57719;DHT22;43561;50.090;18.522;2022-12-10T21:30:30;0.40;99.90
57719;DHT22;43561;50.090;18.522;2022-12-10T21:40:32;0.40;99.90
57719;DHT22;43561;50.090;18.522;2022-12-10T21:50:34;0.30;99.90
57719;DHT22;43561;50.090;18.522;2022-12-10T22:00:37;0.30;99.90
57719;DHT22;43561;50.090;18.522;2022-12-10T22:10:39;0.30;99.90
57719;DHT22;43561;50.090;18.522;2022-12-10T22:20:55;0.30;99.90
57719;DHT22;43561;50.090;18.522;2022-12-10T22:30:58;0.30;99.90
57719;DHT22;43561;50.090;18.522;2022-12-10T22:41:01;0.30;99.90
57719;DHT22;43561;50.090;18.522;2022-12-10T22:51:06;0.30;99.90
57719;DHT22;43561;50.090;18.522;2022-12-10T23:01:16;0.30;99.90
57719;DHT22;43561;50.090;18.522;2022-12-10T23:11:19;0.30;99.90
57719;DHT22;43561;50.090;18.522;2022-12-10T23:21:23;0.30;99.90
57719;DHT22;43561;50.090;18.522;2022-12-10T23:31:25;0.30;99.90
57719;DHT22;43561;50.090;18.522;2022-12-10T23:41:27;0.30;99.90
57719;DHT22;43561;50.090;18.522;2022-12-10T23:51:29;0.30;99.90
